createdAt,value
2019-05-07T00:01:20.429Z,75.20
2019-05-07T00:05:23.005Z,74.50
2019-05-07T00:09:26.526Z,72.70
2019-05-07T00:13:29.064Z,71.80
2019-05-07T00:17:32.322Z,71.00
2019-05-07T00:21:35.190Z,71.80
2019-05-07T00:25:37.714Z,72.50
2019-05-07T00:29:42.700Z,72.70
2019-05-07T00:33:44.697Z,71.20
2019-05-07T00:37:52.687Z,72.10
2019-05-07T00:42:04.993Z,70.80
2019-05-07T00:46:13.367Z,70.70
2019-05-07T00:50:22.559Z,73.30
2019-05-07T00:54:26.150Z,75.60
2019-05-07T00:58:28.692Z,76.60
2019-05-07T01:02:32.375Z,75.40
2019-05-07T01:06:35.328Z,72.60
2019-05-07T01:10:37.887Z,71.00
2019-05-07T01:14:41.987Z,71.90
2019-05-07T01:18:44.722Z,73.10
2019-05-07T01:22:47.323Z,72.90
2019-05-07T01:26:49.866Z,72.90
2019-05-07T01:30:53.007Z,73.00
2019-05-07T01:35:02.597Z,71.40
2019-05-07T01:39:07.042Z,73.50
2019-05-07T01:43:11.934Z,73.40
2019-05-07T01:47:13.981Z,72.40
2019-05-07T01:51:16.591Z,71.20
2019-05-07T01:55:19.106Z,71.20
2019-05-07T01:59:22.483Z,71.20
2019-05-07T02:03:52.734Z,71.40
2019-05-07T02:07:58.930Z,71.70
2019-05-07T02:12:19.406Z,71.90
2019-05-07T02:16:21.974Z,74.70
2019-05-07T02:20:24.521Z,72.70
2019-05-07T02:24:27.534Z,72.50
2019-05-07T02:28:30.034Z,71.90
2019-05-07T02:32:33.591Z,72.10
2019-05-07T02:36:37.413Z,70.70
2019-05-07T02:40:59.457Z,72.40
2019-05-07T02:45:18.660Z,71.70
2019-05-07T02:49:32.962Z,72.70
2019-05-07T02:53:47.312Z,73.20
2019-05-07T02:57:49.891Z,73.90
2019-05-07T03:01:53.793Z,74.10
2019-05-07T03:05:56.506Z,74.00
2019-05-07T03:09:59.081Z,75.70
2019-05-07T03:14:03.265Z,76.30
2019-05-07T03:18:07.786Z,76.30
2019-05-07T03:22:13.271Z,73.80
2019-05-07T03:26:25.648Z,74.20
2019-05-07T03:30:56.651Z,73.00
2019-05-07T03:35:07.993Z,73.20
2019-05-07T03:39:14.521Z,72.80
2019-05-07T03:43:16.307Z,71.10
2019-05-07T03:47:23.860Z,72.50
2019-05-07T03:51:26.555Z,72.90
2019-05-07T03:55:29.105Z,72.80
2019-05-07T03:59:34.232Z,73.30
2019-05-07T04:03:37.310Z,74.10
2019-05-07T04:07:42.727Z,73.60
2019-05-07T04:11:44.428Z,73.70
2019-05-07T04:15:47.099Z,73.30
2019-05-07T04:19:49.665Z,72.90
2019-05-07T04:24:13.579Z,73.50
2019-05-07T04:28:33.385Z,73.90
2019-05-07T04:32:43.411Z,74.20
2019-05-07T04:36:54.636Z,73.70
2019-05-07T04:41:46.879Z,73.70
2019-05-07T04:45:49.552Z,74.40
2019-05-07T04:49:54.932Z,74.90
2019-05-07T04:53:57.451Z,75.00
2019-05-07T04:58:02.751Z,74.90
2019-05-07T05:02:13.546Z,75.30
2019-05-07T05:06:16.200Z,76.10
2019-05-07T05:10:18.738Z,76.30
2019-05-07T05:14:22.792Z,76.20
2019-05-07T05:18:25.570Z,75.80
2019-05-07T05:22:53.201Z,75.70
2019-05-07T05:26:55.729Z,75.40
2019-05-07T05:30:59.874Z,74.70
2019-05-07T05:35:07.610Z,74.10
2019-05-07T05:39:10.179Z,73.40
2019-05-07T05:43:22.455Z,73.90
2019-05-07T05:47:26.580Z,73.50
2019-05-07T05:51:56.830Z,73.90
2019-05-07T05:56:02.389Z,74.40
2019-05-07T06:00:26.969Z,74.20
2019-05-07T06:04:47.523Z,73.20
2019-05-07T06:08:57.301Z,73.60
2019-05-07T06:13:07.210Z,71.90
2019-05-07T06:17:28.428Z,72.50
2019-05-07T06:21:52.477Z,72.90
2019-05-07T06:25:56.633Z,72.70
2019-05-07T06:30:01.993Z,72.20
2019-05-07T06:34:03.724Z,70.90
2019-05-07T06:38:07.582Z,70.40
2019-05-07T06:42:28.222Z,69.30
2019-05-07T06:46:32.300Z,68.20
2019-05-07T06:50:35.019Z,68.10
2019-05-07T06:54:37.592Z,67.70
2019-05-07T06:58:45.765Z,68.10
2019-05-07T07:02:56.999Z,64.90
2019-05-07T07:07:32.015Z,63.10
2019-05-07T07:11:42.379Z,63.40
2019-05-07T07:15:44.736Z,62.20
2019-05-07T07:19:47.326Z,58.20
2019-05-07T07:23:49.903Z,57.90
2019-05-07T07:27:55.582Z,56.40
2019-05-07T07:32:02.330Z,56.10
2019-05-07T07:36:05.077Z,55.00
2019-05-07T07:40:22.505Z,56.50
2019-05-07T07:44:36.875Z,54.50
2019-05-07T07:48:39.456Z,52.60
2019-05-07T07:52:42.096Z,53.90
2019-05-07T07:57:18.951Z,52.10
2019-05-07T08:01:35.020Z,49.70
2019-05-07T08:05:37.607Z,50.30
2019-05-07T08:09:42.772Z,51.10
2019-05-07T08:13:45.495Z,51.30
2019-05-07T08:17:48.167Z,50.50
2019-05-07T08:21:52.139Z,48.50
2019-05-07T08:25:54.987Z,47.00
2019-05-07T08:29:57.583Z,43.50
2019-05-07T08:34:21.989Z,42.50
2019-05-07T08:38:24.625Z,44.80
2019-05-07T08:42:27.166Z,45.10
2019-05-07T08:46:59.623Z,44.20
2019-05-07T08:51:02.589Z,46.90
2019-05-07T08:55:06.370Z,46.20
2019-05-07T08:59:08.945Z,42.60
2019-05-07T09:03:20.163Z,43.50
2019-05-07T09:07:21.898Z,43.80
2019-05-07T09:11:24.628Z,43.10
2019-05-07T09:15:27.713Z,41.40
2019-05-07T09:19:32.236Z,41.00
2019-05-07T09:23:36.680Z,43.80
2019-05-07T09:27:43.544Z,39.30
2019-05-07T09:32:03.826Z,37.90
2019-05-07T09:36:12.137Z,38.80
2019-05-07T09:40:15.267Z,38.60
2019-05-07T09:44:17.828Z,39.30
2019-05-07T09:48:22.125Z,41.30
2019-05-07T09:52:24.802Z,40.80
2019-05-07T09:56:27.358Z,38.90
2019-05-07T10:00:31.822Z,35.90
2019-05-07T10:04:35.760Z,37.30
2019-05-07T10:08:38.465Z,34.20
2019-05-07T10:12:52.576Z,33.30
2019-05-07T10:17:02.828Z,31.30
2019-05-07T10:21:05.435Z,30.80
2019-05-07T10:25:12.024Z,29.30
2019-05-07T10:29:14.626Z,30.40
2019-05-07T10:33:17.509Z,29.10
2019-05-07T10:37:20.441Z,29.00
2019-05-07T10:41:23.232Z,27.80
2019-05-07T10:45:52.053Z,27.70
2019-05-07T10:50:12.427Z,28.60
2019-05-07T10:54:15.185Z,26.10
2019-05-07T10:58:17.708Z,25.50
2019-05-07T11:02:25.269Z,26.80
2019-05-07T11:06:27.790Z,25.30
2019-05-07T11:10:32.400Z,24.50
2019-05-07T11:14:34.815Z,24.20
2019-05-07T11:18:46.032Z,25.50
2019-05-07T11:22:48.621Z,28.80
2019-05-07T11:26:58.496Z,25.00
2019-05-07T11:31:02.033Z,24.40
2019-05-07T11:35:05.462Z,25.20
2019-05-07T11:39:08.830Z,26.60
2019-05-07T11:43:29.273Z,27.90
2019-05-07T11:47:32.806Z,28.40
2019-05-07T11:51:53.697Z,27.10
2019-05-07T11:55:56.266Z,24.80
2019-05-07T11:59:58.826Z,25.30
2019-05-07T12:04:01.980Z,25.10
2019-05-07T12:08:04.881Z,24.30
2019-05-07T12:12:07.446Z,26.10
2019-05-07T12:16:12.052Z,26.70
2019-05-07T12:20:16.911Z,25.00
2019-05-07T12:24:19.408Z,27.20
2019-05-07T12:28:22.565Z,28.10
2019-05-07T12:32:36.353Z,30.50
2019-05-07T12:36:38.894Z,30.10
2019-05-07T12:40:41.923Z,29.60
2019-05-07T12:44:44.527Z,31.00
2019-05-07T12:48:49.052Z,32.30
2019-05-07T12:52:57.203Z,33.50
2019-05-07T12:57:02.552Z,33.40
2019-05-07T13:01:10.326Z,31.60
2019-05-07T13:05:14.404Z,31.50
2019-05-07T13:09:16.933Z,32.30
2019-05-07T13:13:19.490Z,31.50
2019-05-07T13:17:22.506Z,31.30
2019-05-07T13:21:25.105Z,29.20
2019-05-07T13:25:28.432Z,31.70
2019-05-07T13:29:32.641Z,28.20
2019-05-07T13:33:37.464Z,24.50
2019-05-07T13:37:46.469Z,23.40
2019-05-07T13:42:02.117Z,23.30
2019-05-07T13:46:11.892Z,23.80
2019-05-07T13:50:15.561Z,26.70
2019-05-07T13:54:18.712Z,28.20
2019-05-07T13:58:23.021Z,28.70
2019-05-07T14:02:28.327Z,28.70
2019-05-07T14:06:39.643Z,29.60
2019-05-07T14:10:42.510Z,29.90
2019-05-07T14:14:45.858Z,30.20
2019-05-07T14:18:48.402Z,31.30
2019-05-07T14:22:51.721Z,32.50
2019-05-07T14:26:54.292Z,33.70
2019-05-07T14:30:56.861Z,34.10
2019-05-07T14:35:24.683Z,32.80
2019-05-07T14:39:27.209Z,32.20
2019-05-07T14:43:41.854Z,32.80
2019-05-07T14:47:44.901Z,34.10
2019-05-07T14:51:47.490Z,32.20
2019-05-07T14:55:50.046Z,32.30
2019-05-07T14:59:52.638Z,32.00
2019-05-07T15:03:55.171Z,33.50
2019-05-07T15:08:08.347Z,31.00
2019-05-07T15:12:04.959Z,33.80
2019-05-07T15:16:08.049Z,32.70
2019-05-07T15:20:16.399Z,32.50
2019-05-07T15:24:15.436Z,30.70
2019-05-07T15:28:22.775Z,30.20
2019-05-07T15:32:32.339Z,32.00
2019-05-07T15:36:35.184Z,30.80
2019-05-07T15:40:39.530Z,32.60
2019-05-07T15:44:43.190Z,32.40
2019-05-07T15:48:46.290Z,31.40
2019-05-07T15:53:03.273Z,30.30
2019-05-07T15:57:08.114Z,30.90
2019-05-07T16:01:12.671Z,32.10
2019-05-07T16:05:15.414Z,32.90
2019-05-07T16:09:17.928Z,31.70
2019-05-07T16:13:24.626Z,31.40
2019-05-07T16:17:52.297Z,30.50
2019-05-07T16:21:55.549Z,31.60
2019-05-07T16:25:58.209Z,32.60
2019-05-07T16:30:00.769Z,31.90
2019-05-07T16:34:04.652Z,31.90
2019-05-07T16:38:07.213Z,31.90
2019-05-07T16:42:09.782Z,32.40
2019-05-07T16:46:12.294Z,31.80
2019-05-07T16:50:15.232Z,31.90
2019-05-07T16:54:17.988Z,31.90
2019-05-07T16:58:43.618Z,32.40
2019-05-07T17:02:51.673Z,32.50
2019-05-07T17:06:56.661Z,32.60
2019-05-07T17:10:59.270Z,33.30
2019-05-07T17:15:02.938Z,33.40
2019-05-07T17:19:05.882Z,33.10
2019-05-07T17:23:08.398Z,32.50
2019-05-07T17:27:12.984Z,33.40
2019-05-07T17:31:15.556Z,33.20
2019-05-07T17:35:18.158Z,33.20
2019-05-07T17:39:22.543Z,32.70
2019-05-07T17:43:25.054Z,34.00
2019-05-07T17:47:27.699Z,34.10
2019-05-07T17:51:49.748Z,34.60
2019-05-07T17:55:55.865Z,33.90
2019-05-07T18:00:02.085Z,34.50
2019-05-07T18:04:04.117Z,34.70
2019-05-07T18:08:06.646Z,35.00
2019-05-07T18:12:09.277Z,34.90
2019-05-07T18:16:27.592Z,35.50
2019-05-07T18:20:30.143Z,34.30
2019-05-07T18:24:32.759Z,34.90
2019-05-07T18:28:35.293Z,35.70
2019-05-07T18:32:42.703Z,35.70
2019-05-07T18:36:45.521Z,34.40
2019-05-07T18:40:48.950Z,36.60
2019-05-07T18:44:52.390Z,38.20
2019-05-07T18:48:55.104Z,39.00
2019-05-07T18:52:57.658Z,41.00
2019-05-07T18:57:02.165Z,41.10
2019-05-07T19:01:08.797Z,41.30
2019-05-07T19:05:13.723Z,42.90
2019-05-07T19:09:16.297Z,44.20
2019-05-07T19:13:18.852Z,44.20
2019-05-07T19:17:25.553Z,44.20
2019-05-07T19:21:27.690Z,45.10
2019-05-07T19:25:32.507Z,45.10
2019-05-07T19:29:35.925Z,46.50
2019-05-07T19:33:38.522Z,48.40
2019-05-07T19:37:42.571Z,49.60
2019-05-07T19:41:45.268Z,50.10
2019-05-07T19:45:48.174Z,51.00
2019-05-07T19:49:52.496Z,51.40
2019-05-07T19:53:57.062Z,51.90
2019-05-07T19:58:02.847Z,52.60
2019-05-07T20:02:07.621Z,52.50
2019-05-07T20:06:12.679Z,51.60
2019-05-07T20:10:18.624Z,52.30
2019-05-07T20:14:22.327Z,52.70
2019-05-07T20:18:25.354Z,52.50
2019-05-07T20:22:33.237Z,51.70
2019-05-07T20:26:36.051Z,52.30
2019-05-07T20:30:39.020Z,53.00
2019-05-07T20:34:42.336Z,52.60
2019-05-07T20:38:46.250Z,52.30
2019-05-07T20:42:52.351Z,50.80
2019-05-07T20:46:54.589Z,50.70
2019-05-07T20:50:57.427Z,51.50
2019-05-07T20:55:30.871Z,50.80
2019-05-07T20:59:32.761Z,50.80
2019-05-07T21:03:35.462Z,50.80
2019-05-07T21:07:38.051Z,50.30
2019-05-07T21:11:42.863Z,50.40
2019-05-07T21:15:46.469Z,49.90
2019-05-07T21:19:49.019Z,50.20
2019-05-07T21:23:52.766Z,49.80
2019-05-07T21:27:58.522Z,48.30
2019-05-07T21:32:03.070Z,48.60
2019-05-07T21:36:05.393Z,48.00
2019-05-07T21:40:07.929Z,47.70
2019-05-07T21:44:10.547Z,46.90
2019-05-07T21:48:13.674Z,47.50
2019-05-07T21:52:16.435Z,47.50
2019-05-07T21:56:44.631Z,48.40
2019-05-07T22:00:59.426Z,49.10
2019-05-07T22:05:02.668Z,50.30
2019-05-07T22:09:07.001Z,50.90
2019-05-07T22:13:09.503Z,52.20
2019-05-07T22:17:12.714Z,52.60
2019-05-07T22:21:15.482Z,53.50
2019-05-07T22:25:18.030Z,53.40
2019-05-07T22:29:22.589Z,53.30
2019-05-07T22:33:44.069Z,52.60
2019-05-07T22:37:46.720Z,53.60
2019-05-07T22:41:49.269Z,53.30
2019-05-07T22:45:51.832Z,52.40
2019-05-07T22:49:54.388Z,51.20
2019-05-07T22:53:56.932Z,52.00
2019-05-07T22:58:23.482Z,51.40
2019-05-07T23:02:26.077Z,51.40
2019-05-07T23:06:30.058Z,52.70
2019-05-07T23:10:34.419Z,51.80
2019-05-07T23:14:36.919Z,52.40
2019-05-07T23:18:39.516Z,51.30
2019-05-07T23:22:51.531Z,52.60
2019-05-07T23:26:54.008Z,52.40
2019-05-07T23:30:56.587Z,52.90
2019-05-07T23:35:01.882Z,52.80
2019-05-07T23:39:05.809Z,51.50
2019-05-07T23:43:14.770Z,51.60
2019-05-07T23:47:17.374Z,51.60
2019-05-07T23:51:19.924Z,52.00
2019-05-07T23:55:22.899Z,52.50
2019-05-07T23:59:25.472Z,53.30
